Fourni — SVAX9 — position and weather

sailwx.info

Track history (hours):
 
Tides and Currents Weather Stations Pressure Air Temp Water Temp Dewpoint Dewpoint Depression Visibility Wind Speed Wind Dir Waves Ship Positions

Fourni

Last reported at 2018-Aug-11 07:26 UTC. Time now 2018-Aug-14 07:03 UTC.
Position N 40°24' W 073°45'.

Length 183 m; draft 8.5 m.

Type: Tanker. MMSI: 240991000.

Date/timePositionNaut miles runAvg speedWind from/ knotsBaromVisibWave heightAir tempDewpointWater temp
2018-Aug-11 07:26N 40°24' W 073°45'3 7.5
2018-Aug-11 07:00N 40°26' W 073°49'612.3
2018-Aug-11 06:30N 40°30' W 073°56'713.8
2018-Aug-11 06:01N 40°34' W 074°02'4 8.3
2018-Aug-11 05:30N 40°39' W 074°03'0 0.0
2018-Aug-11 05:00N 40°39' W 074°03'0 0.0
2018-Aug-11 04:30N 40°39' W 074°03'0 0.0
2018-Aug-11 04:00N 40°39' W 074°03'0 0.1
2018-Aug-11 03:30N 40°39' W 074°03'0 0.0
2018-Aug-11 03:00N 40°39' W 074°03'0 0.1
2018-Aug-11 02:30N 40°39' W 074°03'0 0.3
2018-Aug-11 02:00N 40°39' W 074°03'0 0.2
2018-Aug-11 01:30N 40°39' W 074°03'0 0.0
2018-Aug-11 01:00N 40°39' W 074°03'0 0.0
2018-Aug-11 00:30N 40°39' W 074°03'0 0.1
2018-Aug-11 00:00N 40°39' W 074°03'0 0.0
2018-Aug-10 23:30N 40°39' W 074°03'0 0.0
2018-Aug-10 23:00N 40°39' W 074°03'0 0.1
2018-Aug-10 22:30N 40°39' W 074°03'0 0.0
2018-Aug-10 22:00N 40°39' W 074°03'0 0.0
2018-Aug-10 21:30N 40°39' W 074°03'0 0.0
2018-Aug-10 21:00N 40°39' W 074°03'0 0.1
2018-Aug-10 20:30N 40°39' W 074°03'0 0.2
2018-Aug-10 20:00N 40°39' W 074°03'0 0.3
2018-Aug-10 19:30N 40°39' W 074°03'0 0.1
2018-Aug-10 19:00N 40°39' W 074°03'0 0.1
2018-Aug-10 18:30N 40°39' W 074°03'0 0.1
2018-Aug-10 18:00N 40°39' W 074°03'0 0.0
2018-Aug-10 17:30N 40°39' W 074°03'0 0.0
2018-Aug-10 17:00N 40°39' W 074°03'0 0.0
2018-Aug-10 16:30N 40°39' W 074°03'0 0.0
2018-Aug-10 16:00N 40°39' W 074°03'0 0.0
2018-Aug-10 15:30N 40°39' W 074°03'0 0.1
2018-Aug-10 15:00N 40°39' W 074°03'0 0.1
2018-Aug-10 14:30N 40°39' W 074°03'0 0.4
2018-Aug-10 14:00N 40°39' W 074°03'0 0.1
2018-Aug-10 13:30N 40°39' W 074°03'0 0.0
2018-Aug-10 13:00N 40°39' W 074°03'0 0.0
2018-Aug-10 12:30N 40°39' W 074°03'0 0.1
2018-Aug-10 12:00N 40°39' W 074°03'0 0.1
2018-Aug-10 11:30N 40°39' W 074°03'0 0.1
2018-Aug-10 11:00N 40°39' W 074°03'0 0.0
2018-Aug-10 10:30N 40°39' W 074°03'0 0.0
2018-Aug-10 10:00N 40°39' W 074°03'0 0.0
2018-Aug-10 09:30N 40°39' W 074°03'0 0.0
2018-Aug-10 09:00N 40°39' W 074°03'0 0.1
2018-Aug-10 08:30N 40°39' W 074°03'0 0.2
2018-Aug-10 08:00N 40°39' W 074°03'0 0.2
2018-Aug-10 07:30N 40°39' W 074°03'0 0.1
2018-Aug-10 07:00N 40°39' W 074°03'0 0.1
2018-Aug-10 06:30N 40°39' W 074°03'0 0.0
2018-Aug-10 06:00N 40°39' W 074°03'0 0.0
2018-Aug-10 05:30N 40°39' W 074°03'0 0.0
2018-Aug-10 05:00N 40°39' W 074°03'0 0.1
2018-Aug-10 04:30N 40°39' W 074°03'0 0.0
2018-Aug-10 04:00N 40°39' W 074°03'0 0.0
2018-Aug-10 03:30N 40°39' W 074°03'0 0.0
2018-Aug-10 03:00N 40°39' W 074°03'0 0.1
2018-Aug-10 02:30N 40°39' W 074°03'0 0.0
2018-Aug-10 02:00N 40°39' W 074°03'0 0.1
2018-Aug-10 01:30N 40°39' W 074°03'0 0.2
2018-Aug-10 01:00N 40°39' W 074°03'0 0.3
2018-Aug-10 00:30N 40°39' W 074°03'0 0.0
2018-Aug-10 00:00N 40°39' W 074°03'0 0.0
2018-Aug-09 23:30N 40°39' W 074°03'1 1.6
2018-Aug-09 23:00N 40°39' W 074°04'4 7.1
2018-Aug-09 22:30N 40°38' W 074°09'3 5.6
2018-Aug-09 22:00N 40°38' W 074°12'3 5.4
2018-Aug-09 21:29N 40°35' W 074°12'0 0.1
2018-Aug-09 20:54N 40°35' W 074°13'0 0.0
2018-Aug-08 15:12N 40°35' W 074°13'0 0.0
2018-Aug-08 15:00N 40°35' W 074°13'0 0.0
2018-Aug-08 14:30N 40°35' W 074°13'0 0.2
2018-Aug-08 14:00N 40°35' W 074°13'2 4.7
2018-Aug-08 13:30N 40°33' W 074°15'3 5.3
2018-Aug-08 13:00N 40°31' W 074°15'2 4.4
2018-Aug-08 12:31N 40°30' W 074°13'5 9.2
2018-Aug-08 12:00N 40°29' W 074°07'5 9.9
2018-Aug-08 11:30N 40°29' W 074°00'5 9.4
2018-Aug-08 11:00N 40°27' W 073°55'5 9.5
2018-Aug-08 10:30N 40°27' W 073°48'4 8.8
2018-Aug-08 10:00N 40°23' W 073°48'510.4
2018-Aug-08 09:31N 40°18' W 073°46'611.5
2018-Aug-08 09:00N 40°12' W 073°45'612.9
2018-Aug-08 08:30N 40°06' W 073°44'713.3
2018-Aug-08 08:00N 39°59' W 073°43'713.6
2018-Aug-08 07:30N 39°52' W 073°42'713.2
2018-Aug-08 07:00N 39°46' W 073°40'713.3
2018-Aug-08 06:30N 39°40' W 073°36'713.2
2018-Aug-08 05:59N 39°34' W 073°32'1513.3
2018-Aug-08 04:50N 39°20' W 073°22'513.1
2018-Aug-08 04:28N 39°16' W 073°20'1313.0
2018-Aug-08 03:28N 39°05' W 073°11'  
Track history (hours):
 
Tides and Currents Weather Stations Pressure Air Temp Water Temp Dewpoint Dewpoint Depression Visibility Wind Speed Wind Dir Waves Ship Positions

Fourni

Last reported at 2018-Aug-11 07:26 UTC. Time now 2018-Aug-14 07:03 UTC.
Position N 40°24' W 073°45'.

Length 183 m; draft 8.5 m.

Type: Tanker. MMSI: 240991000.

Date/timePositionNaut miles runAvg speedWind from/ knotsBaromVisibWave heightAir tempDewpointWater temp
2018-Aug-11 07:26N 40°24' W 073°45'3 7.5
2018-Aug-11 07:00N 40°26' W 073°49'612.3
2018-Aug-11 06:30N 40°30' W 073°56'713.8
2018-Aug-11 06:01N 40°34' W 074°02'4 8.3
2018-Aug-11 05:30N 40°39' W 074°03'0 0.0
2018-Aug-11 05:00N 40°39' W 074°03'0 0.0
2018-Aug-11 04:30N 40°39' W 074°03'0 0.0
2018-Aug-11 04:00N 40°39' W 074°03'0 0.1
2018-Aug-11 03:30N 40°39' W 074°03'0 0.0
2018-Aug-11 03:00N 40°39' W 074°03'0 0.1
2018-Aug-11 02:30N 40°39' W 074°03'0 0.3
2018-Aug-11 02:00N 40°39' W 074°03'0 0.2
2018-Aug-11 01:30N 40°39' W 074°03'0 0.0
2018-Aug-11 01:00N 40°39' W 074°03'0 0.0
2018-Aug-11 00:30N 40°39' W 074°03'0 0.1
2018-Aug-11 00:00N 40°39' W 074°03'0 0.0
2018-Aug-10 23:30N 40°39' W 074°03'0 0.0
2018-Aug-10 23:00N 40°39' W 074°03'0 0.1
2018-Aug-10 22:30N 40°39' W 074°03'0 0.0
2018-Aug-10 22:00N 40°39' W 074°03'0 0.0
2018-Aug-10 21:30N 40°39' W 074°03'0 0.0
2018-Aug-10 21:00N 40°39' W 074°03'0 0.1
2018-Aug-10 20:30N 40°39' W 074°03'0 0.2
2018-Aug-10 20:00N 40°39' W 074°03'0 0.3
2018-Aug-10 19:30N 40°39' W 074°03'0 0.1
2018-Aug-10 19:00N 40°39' W 074°03'0 0.1
2018-Aug-10 18:30N 40°39' W 074°03'0 0.1
2018-Aug-10 18:00N 40°39' W 074°03'0 0.0
2018-Aug-10 17:30N 40°39' W 074°03'0 0.0
2018-Aug-10 17:00N 40°39' W 074°03'0 0.0
2018-Aug-10 16:30N 40°39' W 074°03'0 0.0
2018-Aug-10 16:00N 40°39' W 074°03'0 0.0
2018-Aug-10 15:30N 40°39' W 074°03'0 0.1
2018-Aug-10 15:00N 40°39' W 074°03'0 0.1
2018-Aug-10 14:30N 40°39' W 074°03'0 0.4
2018-Aug-10 14:00N 40°39' W 074°03'0 0.1
2018-Aug-10 13:30N 40°39' W 074°03'0 0.0
2018-Aug-10 13:00N 40°39' W 074°03'0 0.0
2018-Aug-10 12:30N 40°39' W 074°03'0 0.1
2018-Aug-10 12:00N 40°39' W 074°03'0 0.1
2018-Aug-10 11:30N 40°39' W 074°03'0 0.1
2018-Aug-10 11:00N 40°39' W 074°03'0 0.0
2018-Aug-10 10:30N 40°39' W 074°03'0 0.0
2018-Aug-10 10:00N 40°39' W 074°03'0 0.0
2018-Aug-10 09:30N 40°39' W 074°03'0 0.0
2018-Aug-10 09:00N 40°39' W 074°03'0 0.1
2018-Aug-10 08:30N 40°39' W 074°03'0 0.2
2018-Aug-10 08:00N 40°39' W 074°03'0 0.2
2018-Aug-10 07:30N 40°39' W 074°03'0 0.1
2018-Aug-10 07:00N 40°39' W 074°03'0 0.1
2018-Aug-10 06:30N 40°39' W 074°03'0 0.0
2018-Aug-10 06:00N 40°39' W 074°03'0 0.0
2018-Aug-10 05:30N 40°39' W 074°03'0 0.0
2018-Aug-10 05:00N 40°39' W 074°03'0 0.1
2018-Aug-10 04:30N 40°39' W 074°03'0 0.0
2018-Aug-10 04:00N 40°39' W 074°03'0 0.0
2018-Aug-10 03:30N 40°39' W 074°03'0 0.0
2018-Aug-10 03:00N 40°39' W 074°03'0 0.1
2018-Aug-10 02:30N 40°39' W 074°03'0 0.0
2018-Aug-10 02:00N 40°39' W 074°03'0 0.1
2018-Aug-10 01:30N 40°39' W 074°03'0 0.2
2018-Aug-10 01:00N 40°39' W 074°03'0 0.3
2018-Aug-10 00:30N 40°39' W 074°03'0 0.0
2018-Aug-10 00:00N 40°39' W 074°03'0 0.0
2018-Aug-09 23:30N 40°39' W 074°03'1 1.6
2018-Aug-09 23:00N 40°39' W 074°04'4 7.1
2018-Aug-09 22:30N 40°38' W 074°09'3 5.6
2018-Aug-09 22:00N 40°38' W 074°12'3 5.4
2018-Aug-09 21:29N 40°35' W 074°12'0 0.1
2018-Aug-09 20:54N 40°35' W 074°13'0 0.0
2018-Aug-08 15:12N 40°35' W 074°13'0 0.0
2018-Aug-08 15:00N 40°35' W 074°13'0 0.0
2018-Aug-08 14:30N 40°35' W 074°13'0 0.2
2018-Aug-08 14:00N 40°35' W 074°13'2 4.7
2018-Aug-08 13:30N 40°33' W 074°15'3 5.3
2018-Aug-08 13:00N 40°31' W 074°15'2 4.4
2018-Aug-08 12:31N 40°30' W 074°13'5 9.2
2018-Aug-08 12:00N 40°29' W 074°07'5 9.9
2018-Aug-08 11:30N 40°29' W 074°00'5 9.4
2018-Aug-08 11:00N 40°27' W 073°55'5 9.5
2018-Aug-08 10:30N 40°27' W 073°48'4 8.8
2018-Aug-08 10:00N 40°23' W 073°48'510.4
2018-Aug-08 09:31N 40°18' W 073°46'611.5
2018-Aug-08 09:00N 40°12' W 073°45'612.9
2018-Aug-08 08:30N 40°06' W 073°44'713.3
2018-Aug-08 08:00N 39°59' W 073°43'713.6
2018-Aug-08 07:30N 39°52' W 073°42'713.2
2018-Aug-08 07:00N 39°46' W 073°40'713.3
2018-Aug-08 06:30N 39°40' W 073°36'713.2
2018-Aug-08 05:59N 39°34' W 073°32'1513.3
2018-Aug-08 04:50N 39°20' W 073°22'513.1
2018-Aug-08 04:28N 39°16' W 073°20'1313.0
2018-Aug-08 03:28N 39°05' W 073°11'  

Dump ship's entire track history